Kismet, Kansas
Current Conditions -  °F | °C
As of 11:35 AM on Monday 24 Nov 2014 (Local Time) from KLBL Reporting Station
Clear Clear  
Wind Chill: 42°   Ceiling: Unl
Heat Index: 48°   Visibility: 10mi
Dew Point: 18°   Wind: 15mph
Humidity: 30%   Direction: 310°NW
Pressure: 30.01"   Gusts: 24mph
Location:  37.21°N, 100.7°W
Report Text: KLBL 241735Z AUTO 31013G21KT 10SM CLR 09/M08 A3001 RMK AO1
Loading
Personal Weather Stations






























Interactive Weather Map New forecast layout! Learn more

10-Day Weather Forecast

Advertisements
Track Severe Weather on mobile